Fridtjof Nansen — DGLS — position and weather

sailwx.info

Track history (hours):
 
Tides and Currents Weather Stations Pressure Air Temp Water Temp Dewpoint Dewpoint Depression Visibility Wind Speed Wind Dir Waves Ship Positions

Fridtjof Nansen (Germany)

Last reported at 2019-Jun-14 07:10 UTC. Time now 2019-Jun-16 00:36 UTC.
Position N 54°01' E 011°10'.

Length 48 m; draft 2.8 m.

Type: Sailing vessel. MMSI: 211364430.

Date/timePositionNaut miles runAvg speedWind from/ knotsBaromVisibWave heightAir tempDewpointWater temp
2019-Jun-14 07:10N 54°01' E 011°10'0 0.1
2019-Jun-14 06:58N 54°01' E 011°10'0 0.0
2019-Jun-14 06:28N 54°01' E 011°10'0 0.0
2019-Jun-14 05:58N 54°01' E 011°10'0 0.0
2019-Jun-14 05:28N 54°01' E 011°10'0 0.0
2019-Jun-14 04:58N 54°01' E 011°10'0 0.0
2019-Jun-14 04:28N 54°01' E 011°10'0 0.0
2019-Jun-14 03:58N 54°01' E 011°10'0 0.0
2019-Jun-14 03:07N 54°01' E 011°10'3 0.2
2019-Jun-13 14:43N 54°02' E 011°05'9 0.2
2019-Jun-11 15:46N 54°01' E 011°20'1 5.0
2019-Jun-11 15:30N 53°59' E 011°21'2 4.7
2019-Jun-11 15:01N 53°57' E 011°23'2 4.2
2019-Jun-11 14:30N 53°56' E 011°25'2 4.0
2019-Jun-11 14:00N 53°54' E 011°27'0 0.2
2019-Jun-11 12:56N 53°54' E 011°27'0 0.0
2019-Jun-11 12:26N 53°54' E 011°27'0 0.0
2019-Jun-11 07:02N 53°54' E 011°27'0 0.0
2019-Jun-11 06:56N 53°54' E 011°27'0 0.0
2019-Jun-11 06:14N 53°54' E 011°27'0 0.0
2019-Jun-11 05:59N 53°54' E 011°27'0 0.0
2019-Jun-11 05:29N 53°54' E 011°27'0 0.0
2019-Jun-11 04:59N 53°54' E 011°27'0 0.0
2019-Jun-11 04:29N 53°54' E 011°27'0 0.0
2019-Jun-11 03:59N 53°54' E 011°27'0 0.0
2019-Jun-11 03:29N 53°54' E 011°27'0 0.0
2019-Jun-11 02:59N 53°54' E 011°27'0 0.0
2019-Jun-11 02:29N 53°54' E 011°27'0 0.0
2019-Jun-11 01:59N 53°54' E 011°27'0 0.0
2019-Jun-11 01:29N 53°54' E 011°27'0 0.0
2019-Jun-11 00:59N 53°54' E 011°27'0 0.0
2019-Jun-11 00:29N 53°54' E 011°27'0 0.0
2019-Jun-10 23:59N 53°54' E 011°27'0 0.0
2019-Jun-10 23:29N 53°54' E 011°27'0 0.0
2019-Jun-10 22:59N 53°54' E 011°27'0 0.0
2019-Jun-10 22:29N 53°54' E 011°27'0 0.0
2019-Jun-10 21:56N 53°54' E 011°27'0 0.0
2019-Jun-10 21:29N 53°54' E 011°27'0 0.0
2019-Jun-10 17:17N 53°54' E 011°27'0 0.0
2019-Jun-10 16:59N 53°54' E 011°27'0 0.0
2019-Jun-10 16:29N 53°54' E 011°27'0 0.0
2019-Jun-10 15:56N 53°54' E 011°27'0 0.0
2019-Jun-10 15:29N 53°54' E 011°27'0 0.0
2019-Jun-10 14:59N 53°54' E 011°27'0 0.0
2019-Jun-10 14:26N 53°54' E 011°27'0 0.0
2019-Jun-10 13:56N 53°54' E 011°27'0 0.0
2019-Jun-10 13:07N 53°54' E 011°27'0 0.0
2019-Jun-10 12:40N 53°54' E 011°27'0 0.0
2019-Jun-10 12:28N 53°54' E 011°27'0 0.0
2019-Jun-10 11:01N 53°54' E 011°27'0 0.0
2019-Jun-10 10:13N 53°54' E 011°27'0 1.1
2019-Jun-10 10:00N 53°54' E 011°27'2 3.5
2019-Jun-10 09:30N 53°56' E 011°25'2 4.8
2019-Jun-10 09:00N 53°57' E 011°23'2 3.5
2019-Jun-10 08:30N 53°59' E 011°21'0 0.1
2019-Jun-10 07:57N 53°59' E 011°21'0 0.0
2019-Jun-10 07:30N 53°59' E 011°21'0 0.0
2019-Jun-10 07:00N 53°59' E 011°21'0 0.0
2019-Jun-10 06:27N 53°59' E 011°21'0 0.0
2019-Jun-10 06:00N 53°59' E 011°21'0 0.0
2019-Jun-10 05:30N 53°59' E 011°21'0 0.0
2019-Jun-10 05:00N 53°59' E 011°21'0 0.0
2019-Jun-10 04:30N 53°59' E 011°21'0 0.0
2019-Jun-10 04:00N 53°59' E 011°21'0 0.0
2019-Jun-10 03:30N 53°59' E 011°21'0 0.0
2019-Jun-10 03:00N 53°59' E 011°21'0 0.0
2019-Jun-10 02:30N 53°59' E 011°21'0 0.0
2019-Jun-10 02:00N 53°59' E 011°21'0 0.0
2019-Jun-10 01:30N 53°59' E 011°21'0 0.0
2019-Jun-10 01:00N 53°59' E 011°21'0 0.0
2019-Jun-10 00:30N 53°59' E 011°21'0 0.0
2019-Jun-10 00:00N 53°59' E 011°21'0 0.0
2019-Jun-09 23:30N 53°59' E 011°21'0 0.0
2019-Jun-09 23:00N 53°59' E 011°21'0 0.8
2019-Jun-09 22:30N 53°59' E 011°21'4 0.3
2019-Jun-09 10:05N 54°03' E 011°18'1 2.6
2019-Jun-09 09:49N 54°02' E 011°19'1 2.9
2019-Jun-09 09:30N 54°01' E 011°19'2 3.8
2019-Jun-09 09:00N 53°60' E 011°21'0 0.4
2019-Jun-09 08:29N 53°59' E 011°21'3 3.5
2019-Jun-09 07:43N 54°02' E 011°19'1 2.5
2019-Jun-09 07:30N 54°01' E 011°19'2 3.2
2019-Jun-09 07:00N 53°60' E 011°20'2 4.2
2019-Jun-09 06:30N 53°58' E 011°22'2 4.6
2019-Jun-09 06:00N 53°56' E 011°25'2 4.9
2019-Jun-09 05:30N 53°54' E 011°27'0 0.0
2019-Jun-08 11:55N 53°54' E 011°27'0 0.0
2019-Jun-08 10:20N 53°54' E 011°27'0 0.1
2019-Jun-08 10:00N 53°54' E 011°27'0 0.1
2019-Jun-08 09:06N 53°54' E 011°27'0 0.0
2019-Jun-08 09:00N 53°54' E 011°27'0 0.0
2019-Jun-08 06:59N 53°54' E 011°27'0 0.0
2019-Jun-08 05:32N 53°54' E 011°27'0 0.0
2019-Jun-08 05:23N 53°54' E 011°27'0 0.0
2019-Jun-08 04:59N 53°54' E 011°27'0 0.0
2019-Jun-08 04:29N 53°54' E 011°27'0 0.0
2019-Jun-07 19:48N 53°54' E 011°27'0 0.6
2019-Jun-07 19:30N 53°54' E 011°27'0 0.1
2019-Jun-07 17:52N 53°54' E 011°27'0 0.0
2019-Jun-07 16:58N 53°54' E 011°27'0 0.0
2019-Jun-07 15:54N 53°54' E 011°27'0 0.0
2019-Jun-07 14:58N 53°54' E 011°27'0 0.0
2019-Jun-07 14:29N 53°54' E 011°27'0 0.0
2019-Jun-07 09:04N 53°54' E 011°27'0 0.0
2019-Jun-07 08:30N 53°54' E 011°27'0 0.0
2019-Jun-07 07:44N 53°54' E 011°27'0 0.0
2019-Jun-07 07:01N 53°54' E 011°27'0 0.2
2019-Jun-07 07:00N 53°54' E 011°27'0 0.0
2019-Jun-07 06:24N 53°54' E 011°27'0 0.0
2019-Jun-07 05:54N 53°54' E 011°27'0 0.0
2019-Jun-07 04:38N 53°54' E 011°27'0 0.0
2019-Jun-07 04:00N 53°54' E 011°27'0 0.0
2019-Jun-06 16:19N 53°54' E 011°27'0 0.0
2019-Jun-06 15:46N 53°54' E 011°27'0 0.0
2019-Jun-06 15:23N 53°54' E 011°27'0 0.0
2019-Jun-06 14:36N 53°54' E 011°27'0 0.0
2019-Jun-06 14:29N 53°54' E 011°27'0 0.0
2019-Jun-06 11:39N 53°54' E 011°27'0 0.0
2019-Jun-06 11:19N 53°54' E 011°27'0 0.0
2019-Jun-06 07:17N 53°54' E 011°27'0 1.3
2019-Jun-06 07:01N 53°54' E 011°27'1 2.6
2019-Jun-06 06:30N 53°55' E 011°26'1 2.7
2019-Jun-06 06:00N 53°56' E 011°25'1 2.4
2019-Jun-06 05:30N 53°57' E 011°23'2 3.4
2019-Jun-06 05:00N 53°59' E 011°22'0 0.0
2019-Jun-06 04:29N 53°59' E 011°22'0 0.0
2019-Jun-06 03:59N 53°59' E 011°22'0 0.0
2019-Jun-06 03:29N 53°59' E 011°22'0 0.0
2019-Jun-06 02:59N 53°59' E 011°22'0 0.0
2019-Jun-06 02:29N 53°59' E 011°22'0 0.0
2019-Jun-06 01:59N 53°59' E 011°22'0 0.0
2019-Jun-06 01:29N 53°59' E 011°22'0 0.0
2019-Jun-06 00:59N 53°59' E 011°22'0 0.0
2019-Jun-06 00:29N 53°59' E 011°22'0 0.0
2019-Jun-05 23:59N 53°59' E 011°22'0 0.0
2019-Jun-05 23:29N 53°59' E 011°22'0 0.0
2019-Jun-05 22:59N 53°59' E 011°22'0 0.0
2019-Jun-05 22:29N 53°59' E 011°22'0 0.0
2019-Jun-05 21:59N 53°59' E 011°22'0 0.0
2019-Jun-05 21:29N 53°59' E 011°22'0 0.0
2019-Jun-05 20:59N 53°59' E 011°22'0 0.0
2019-Jun-05 20:29N 53°59' E 011°22'0 0.0
2019-Jun-05 19:59N 53°59' E 011°22'0 0.0
2019-Jun-05 19:29N 53°59' E 011°22'0 0.1
2019-Jun-05 18:59N 53°59' E 011°22'0 0.0
2019-Jun-05 17:44N 53°59' E 011°22'0 0.2
2019-Jun-05 17:29N 53°59' E 011°22'0 0.0
2019-Jun-05 16:59N 53°59' E 011°22'0 0.0
2019-Jun-05 16:29N 53°59' E 011°22'0 0.0
2019-Jun-05 15:59N 53°59' E 011°22'0 0.0
2019-Jun-05 15:29N 53°59' E 011°22'0 0.0
2019-Jun-05 14:59N 53°59' E 011°22'0 0.0
2019-Jun-05 14:29N 53°59' E 011°22'0 0.0
2019-Jun-05 13:59N 53°59' E 011°22'0 0.0
2019-Jun-05 13:29N 53°59' E 011°22'0 0.0
2019-Jun-05 12:59N 53°59' E 011°22'0 0.0
2019-Jun-05 12:29N 53°59' E 011°22'0 0.0
2019-Jun-05 11:59N 53°59' E 011°22'0 0.0
2019-Jun-05 11:29N 53°59' E 011°22'0 0.0
2019-Jun-05 10:59N 53°59' E 011°22'0 0.0
2019-Jun-05 10:29N 53°59' E 011°22'0 0.1
2019-Jun-05 09:59N 53°59' E 011°22'0 0.0
2019-Jun-05 09:20N 53°59' E 011°22'0 0.0
2019-Jun-05 08:59N 53°59' E 011°22'0 0.0
2019-Jun-05 07:41N 53°59' E 011°22'0 0.0
2019-Jun-05 07:29N 53°59' E 011°22'0 0.0
2019-Jun-05 06:56N 53°59' E 011°22'0 0.0
2019-Jun-05 06:14N 53°59' E 011°22'0 0.0
2019-Jun-05 05:23N 53°59' E 011°22'0 0.0
2019-Jun-05 04:59N 53°59' E 011°22'0 0.0
2019-Jun-05 04:29N 53°59' E 011°22'0 0.0
2019-Jun-05 03:59N 53°59' E 011°22'0 0.0
2019-Jun-05 03:29N 53°59' E 011°22'0 0.0
2019-Jun-05 02:47N 53°59' E 011°22'0 0.0
2019-Jun-05 02:29N 53°59' E 011°22'0 0.0
2019-Jun-05 01:53N 53°59' E 011°22'0 0.0
2019-Jun-05 01:29N 53°59' E 011°22'0 0.0
2019-Jun-05 00:59N 53°59' E 011°22'0 0.0
2019-Jun-05 00:28N 53°59' E 011°22'0 0.0
2019-Jun-04 23:52N 53°59' E 011°22'0 0.0
2019-Jun-04 23:28N 53°59' E 011°22'0 0.0
2019-Jun-04 22:58N 53°59' E 011°22'0 0.0
2019-Jun-04 22:28N 53°59' E 011°22'0 0.0
2019-Jun-04 21:58N 53°59' E 011°22'0 0.0
2019-Jun-04 21:28N 53°59' E 011°22'0 0.0
2019-Jun-04 20:58N 53°59' E 011°22'0 0.0
2019-Jun-04 20:28N 53°59' E 011°22'0 0.0
2019-Jun-04 19:58N 53°59' E 011°22'0 0.0
2019-Jun-04 19:28N 53°59' E 011°22'0 0.1
2019-Jun-04 18:58N 53°59' E 011°22'0 0.0
2019-Jun-04 18:28N 53°59' E 011°22'0 0.0
2019-Jun-04 17:58N 53°59' E 011°22'0 0.0
2019-Jun-04 17:25N 53°59' E 011°22'0 0.0
2019-Jun-04 16:58N 53°59' E 011°22'0 0.0
2019-Jun-04 16:28N 53°59' E 011°22'0 0.0
2019-Jun-04 15:59N 53°59' E 011°22'3 4.0
2019-Jun-04 15:20N 54°01' E 011°19'13 2.0
2019-Jun-04 08:51N 54°10' E 011°34'1 2.5
2019-Jun-04 08:30N 54°10' E 011°35'1 2.6
2019-Jun-04 07:57N 54°09' E 011°38'  
Track history (hours):
 
Tides and Currents Weather Stations Pressure Air Temp Water Temp Dewpoint Dewpoint Depression Visibility Wind Speed Wind Dir Waves Ship Positions

Fridtjof Nansen (Germany)

Last reported at 2019-Jun-14 07:10 UTC. Time now 2019-Jun-16 00:36 UTC.
Position N 54°01' E 011°10'.

Length 48 m; draft 2.8 m.

Type: Sailing vessel. MMSI: 211364430.

Date/timePositionNaut miles runAvg speedWind from/ knotsBaromVisibWave heightAir tempDewpointWater temp
2019-Jun-14 07:10N 54°01' E 011°10'0 0.1
2019-Jun-14 06:58N 54°01' E 011°10'0 0.0
2019-Jun-14 06:28N 54°01' E 011°10'0 0.0
2019-Jun-14 05:58N 54°01' E 011°10'0 0.0
2019-Jun-14 05:28N 54°01' E 011°10'0 0.0
2019-Jun-14 04:58N 54°01' E 011°10'0 0.0
2019-Jun-14 04:28N 54°01' E 011°10'0 0.0
2019-Jun-14 03:58N 54°01' E 011°10'0 0.0
2019-Jun-14 03:07N 54°01' E 011°10'3 0.2
2019-Jun-13 14:43N 54°02' E 011°05'9 0.2
2019-Jun-11 15:46N 54°01' E 011°20'1 5.0
2019-Jun-11 15:30N 53°59' E 011°21'2 4.7
2019-Jun-11 15:01N 53°57' E 011°23'2 4.2
2019-Jun-11 14:30N 53°56' E 011°25'2 4.0
2019-Jun-11 14:00N 53°54' E 011°27'0 0.2
2019-Jun-11 12:56N 53°54' E 011°27'0 0.0
2019-Jun-11 12:26N 53°54' E 011°27'0 0.0
2019-Jun-11 07:02N 53°54' E 011°27'0 0.0
2019-Jun-11 06:56N 53°54' E 011°27'0 0.0
2019-Jun-11 06:14N 53°54' E 011°27'0 0.0
2019-Jun-11 05:59N 53°54' E 011°27'0 0.0
2019-Jun-11 05:29N 53°54' E 011°27'0 0.0
2019-Jun-11 04:59N 53°54' E 011°27'0 0.0
2019-Jun-11 04:29N 53°54' E 011°27'0 0.0
2019-Jun-11 03:59N 53°54' E 011°27'0 0.0
2019-Jun-11 03:29N 53°54' E 011°27'0 0.0
2019-Jun-11 02:59N 53°54' E 011°27'0 0.0
2019-Jun-11 02:29N 53°54' E 011°27'0 0.0
2019-Jun-11 01:59N 53°54' E 011°27'0 0.0
2019-Jun-11 01:29N 53°54' E 011°27'0 0.0
2019-Jun-11 00:59N 53°54' E 011°27'0 0.0
2019-Jun-11 00:29N 53°54' E 011°27'0 0.0
2019-Jun-10 23:59N 53°54' E 011°27'0 0.0
2019-Jun-10 23:29N 53°54' E 011°27'0 0.0
2019-Jun-10 22:59N 53°54' E 011°27'0 0.0
2019-Jun-10 22:29N 53°54' E 011°27'0 0.0
2019-Jun-10 21:56N 53°54' E 011°27'0 0.0
2019-Jun-10 21:29N 53°54' E 011°27'0 0.0
2019-Jun-10 17:17N 53°54' E 011°27'0 0.0
2019-Jun-10 16:59N 53°54' E 011°27'0 0.0
2019-Jun-10 16:29N 53°54' E 011°27'0 0.0
2019-Jun-10 15:56N 53°54' E 011°27'0 0.0
2019-Jun-10 15:29N 53°54' E 011°27'0 0.0
2019-Jun-10 14:59N 53°54' E 011°27'0 0.0
2019-Jun-10 14:26N 53°54' E 011°27'0 0.0
2019-Jun-10 13:56N 53°54' E 011°27'0 0.0
2019-Jun-10 13:07N 53°54' E 011°27'0 0.0
2019-Jun-10 12:40N 53°54' E 011°27'0 0.0
2019-Jun-10 12:28N 53°54' E 011°27'0 0.0
2019-Jun-10 11:01N 53°54' E 011°27'0 0.0
2019-Jun-10 10:13N 53°54' E 011°27'0 1.1
2019-Jun-10 10:00N 53°54' E 011°27'2 3.5
2019-Jun-10 09:30N 53°56' E 011°25'2 4.8
2019-Jun-10 09:00N 53°57' E 011°23'2 3.5
2019-Jun-10 08:30N 53°59' E 011°21'0 0.1
2019-Jun-10 07:57N 53°59' E 011°21'0 0.0
2019-Jun-10 07:30N 53°59' E 011°21'0 0.0
2019-Jun-10 07:00N 53°59' E 011°21'0 0.0
2019-Jun-10 06:27N 53°59' E 011°21'0 0.0
2019-Jun-10 06:00N 53°59' E 011°21'0 0.0
2019-Jun-10 05:30N 53°59' E 011°21'0 0.0
2019-Jun-10 05:00N 53°59' E 011°21'0 0.0
2019-Jun-10 04:30N 53°59' E 011°21'0 0.0
2019-Jun-10 04:00N 53°59' E 011°21'0 0.0
2019-Jun-10 03:30N 53°59' E 011°21'0 0.0
2019-Jun-10 03:00N 53°59' E 011°21'0 0.0
2019-Jun-10 02:30N 53°59' E 011°21'0 0.0
2019-Jun-10 02:00N 53°59' E 011°21'0 0.0
2019-Jun-10 01:30N 53°59' E 011°21'0 0.0
2019-Jun-10 01:00N 53°59' E 011°21'0 0.0
2019-Jun-10 00:30N 53°59' E 011°21'0 0.0
2019-Jun-10 00:00N 53°59' E 011°21'0 0.0
2019-Jun-09 23:30N 53°59' E 011°21'0 0.0
2019-Jun-09 23:00N 53°59' E 011°21'0 0.8
2019-Jun-09 22:30N 53°59' E 011°21'4 0.3
2019-Jun-09 10:05N 54°03' E 011°18'1 2.6
2019-Jun-09 09:49N 54°02' E 011°19'1 2.9
2019-Jun-09 09:30N 54°01' E 011°19'2 3.8
2019-Jun-09 09:00N 53°60' E 011°21'0 0.4
2019-Jun-09 08:29N 53°59' E 011°21'3 3.5
2019-Jun-09 07:43N 54°02' E 011°19'1 2.5
2019-Jun-09 07:30N 54°01' E 011°19'2 3.2
2019-Jun-09 07:00N 53°60' E 011°20'2 4.2
2019-Jun-09 06:30N 53°58' E 011°22'2 4.6
2019-Jun-09 06:00N 53°56' E 011°25'2 4.9
2019-Jun-09 05:30N 53°54' E 011°27'0 0.0
2019-Jun-08 11:55N 53°54' E 011°27'0 0.0
2019-Jun-08 10:20N 53°54' E 011°27'0 0.1
2019-Jun-08 10:00N 53°54' E 011°27'0 0.1
2019-Jun-08 09:06N 53°54' E 011°27'0 0.0
2019-Jun-08 09:00N 53°54' E 011°27'0 0.0
2019-Jun-08 06:59N 53°54' E 011°27'0 0.0
2019-Jun-08 05:32N 53°54' E 011°27'0 0.0
2019-Jun-08 05:23N 53°54' E 011°27'0 0.0
2019-Jun-08 04:59N 53°54' E 011°27'0 0.0
2019-Jun-08 04:29N 53°54' E 011°27'0 0.0
2019-Jun-07 19:48N 53°54' E 011°27'0 0.6
2019-Jun-07 19:30N 53°54' E 011°27'0 0.1
2019-Jun-07 17:52N 53°54' E 011°27'0 0.0
2019-Jun-07 16:58N 53°54' E 011°27'0 0.0
2019-Jun-07 15:54N 53°54' E 011°27'0 0.0
2019-Jun-07 14:58N 53°54' E 011°27'0 0.0
2019-Jun-07 14:29N 53°54' E 011°27'0 0.0
2019-Jun-07 09:04N 53°54' E 011°27'0 0.0
2019-Jun-07 08:30N 53°54' E 011°27'0 0.0
2019-Jun-07 07:44N 53°54' E 011°27'0 0.0
2019-Jun-07 07:01N 53°54' E 011°27'0 0.2
2019-Jun-07 07:00N 53°54' E 011°27'0 0.0
2019-Jun-07 06:24N 53°54' E 011°27'0 0.0
2019-Jun-07 05:54N 53°54' E 011°27'0 0.0
2019-Jun-07 04:38N 53°54' E 011°27'0 0.0
2019-Jun-07 04:00N 53°54' E 011°27'0 0.0
2019-Jun-06 16:19N 53°54' E 011°27'0 0.0
2019-Jun-06 15:46N 53°54' E 011°27'0 0.0
2019-Jun-06 15:23N 53°54' E 011°27'0 0.0
2019-Jun-06 14:36N 53°54' E 011°27'0 0.0
2019-Jun-06 14:29N 53°54' E 011°27'0 0.0
2019-Jun-06 11:39N 53°54' E 011°27'0 0.0
2019-Jun-06 11:19N 53°54' E 011°27'0 0.0
2019-Jun-06 07:17N 53°54' E 011°27'0 1.3
2019-Jun-06 07:01N 53°54' E 011°27'1 2.6
2019-Jun-06 06:30N 53°55' E 011°26'1 2.7
2019-Jun-06 06:00N 53°56' E 011°25'1 2.4
2019-Jun-06 05:30N 53°57' E 011°23'2 3.4
2019-Jun-06 05:00N 53°59' E 011°22'0 0.0
2019-Jun-06 04:29N 53°59' E 011°22'0 0.0
2019-Jun-06 03:59N 53°59' E 011°22'0 0.0
2019-Jun-06 03:29N 53°59' E 011°22'0 0.0
2019-Jun-06 02:59N 53°59' E 011°22'0 0.0
2019-Jun-06 02:29N 53°59' E 011°22'0 0.0
2019-Jun-06 01:59N 53°59' E 011°22'0 0.0
2019-Jun-06 01:29N 53°59' E 011°22'0 0.0
2019-Jun-06 00:59N 53°59' E 011°22'0 0.0
2019-Jun-06 00:29N 53°59' E 011°22'0 0.0
2019-Jun-05 23:59N 53°59' E 011°22'0 0.0
2019-Jun-05 23:29N 53°59' E 011°22'0 0.0
2019-Jun-05 22:59N 53°59' E 011°22'0 0.0
2019-Jun-05 22:29N 53°59' E 011°22'0 0.0
2019-Jun-05 21:59N 53°59' E 011°22'0 0.0
2019-Jun-05 21:29N 53°59' E 011°22'0 0.0
2019-Jun-05 20:59N 53°59' E 011°22'0 0.0
2019-Jun-05 20:29N 53°59' E 011°22'0 0.0
2019-Jun-05 19:59N 53°59' E 011°22'0 0.0
2019-Jun-05 19:29N 53°59' E 011°22'0 0.1
2019-Jun-05 18:59N 53°59' E 011°22'0 0.0
2019-Jun-05 17:44N 53°59' E 011°22'0 0.2
2019-Jun-05 17:29N 53°59' E 011°22'0 0.0
2019-Jun-05 16:59N 53°59' E 011°22'0 0.0
2019-Jun-05 16:29N 53°59' E 011°22'0 0.0
2019-Jun-05 15:59N 53°59' E 011°22'0 0.0
2019-Jun-05 15:29N 53°59' E 011°22'0 0.0
2019-Jun-05 14:59N 53°59' E 011°22'0 0.0
2019-Jun-05 14:29N 53°59' E 011°22'0 0.0
2019-Jun-05 13:59N 53°59' E 011°22'0 0.0
2019-Jun-05 13:29N 53°59' E 011°22'0 0.0
2019-Jun-05 12:59N 53°59' E 011°22'0 0.0
2019-Jun-05 12:29N 53°59' E 011°22'0 0.0
2019-Jun-05 11:59N 53°59' E 011°22'0 0.0
2019-Jun-05 11:29N 53°59' E 011°22'0 0.0
2019-Jun-05 10:59N 53°59' E 011°22'0 0.0
2019-Jun-05 10:29N 53°59' E 011°22'0 0.1
2019-Jun-05 09:59N 53°59' E 011°22'0 0.0
2019-Jun-05 09:20N 53°59' E 011°22'0 0.0
2019-Jun-05 08:59N 53°59' E 011°22'0 0.0
2019-Jun-05 07:41N 53°59' E 011°22'0 0.0
2019-Jun-05 07:29N 53°59' E 011°22'0 0.0
2019-Jun-05 06:56N 53°59' E 011°22'0 0.0
2019-Jun-05 06:14N 53°59' E 011°22'0 0.0
2019-Jun-05 05:23N 53°59' E 011°22'0 0.0
2019-Jun-05 04:59N 53°59' E 011°22'0 0.0
2019-Jun-05 04:29N 53°59' E 011°22'0 0.0
2019-Jun-05 03:59N 53°59' E 011°22'0 0.0
2019-Jun-05 03:29N 53°59' E 011°22'0 0.0
2019-Jun-05 02:47N 53°59' E 011°22'0 0.0
2019-Jun-05 02:29N 53°59' E 011°22'0 0.0
2019-Jun-05 01:53N 53°59' E 011°22'0 0.0
2019-Jun-05 01:29N 53°59' E 011°22'0 0.0
2019-Jun-05 00:59N 53°59' E 011°22'0 0.0
2019-Jun-05 00:28N 53°59' E 011°22'0 0.0
2019-Jun-04 23:52N 53°59' E 011°22'0 0.0
2019-Jun-04 23:28N 53°59' E 011°22'0 0.0
2019-Jun-04 22:58N 53°59' E 011°22'0 0.0
2019-Jun-04 22:28N 53°59' E 011°22'0 0.0
2019-Jun-04 21:58N 53°59' E 011°22'0 0.0
2019-Jun-04 21:28N 53°59' E 011°22'0 0.0
2019-Jun-04 20:58N 53°59' E 011°22'0 0.0
2019-Jun-04 20:28N 53°59' E 011°22'0 0.0
2019-Jun-04 19:58N 53°59' E 011°22'0 0.0
2019-Jun-04 19:28N 53°59' E 011°22'0 0.1
2019-Jun-04 18:58N 53°59' E 011°22'0 0.0
2019-Jun-04 18:28N 53°59' E 011°22'0 0.0
2019-Jun-04 17:58N 53°59' E 011°22'0 0.0
2019-Jun-04 17:25N 53°59' E 011°22'0 0.0
2019-Jun-04 16:58N 53°59' E 011°22'0 0.0
2019-Jun-04 16:28N 53°59' E 011°22'0 0.0
2019-Jun-04 15:59N 53°59' E 011°22'3 4.0
2019-Jun-04 15:20N 54°01' E 011°19'13 2.0
2019-Jun-04 08:51N 54°10' E 011°34'1 2.5
2019-Jun-04 08:30N 54°10' E 011°35'1 2.6
2019-Jun-04 07:57N 54°09' E 011°38'  

Dump ship's entire track history